Time;durP1;ratioP1;P1;durP2;ratioP2;P2;SDS_P1;SDS_P2;PMS_P1;PMS_P2;Temp;Humidity;BMP_temperature;BMP_pressure;BME280_temperature;BME280_humidity;BME280_pressure;Samples;Min_cycle;Max_cycle;Signal;HPM_P1;HPM_P2
2023/09/24 00:01:41;;;;;;;8.00;1.83;;;16.60;99.90;;;;;;5132149;27;20026;-77
2023/09/24 00:04:07;;;;;;;4.85;1.65;;;16.50;99.90;;;;;;5112689;28;20384;-77
2023/09/24 00:06:32;;;;;;;6.10;1.50;;;16.50;99.90;;;;;;5112569;27;20136;-76
2023/09/24 00:08:58;;;;;;;7.72;1.50;;;16.50;99.90;;;;;;5130357;27;20383;-76
2023/09/24 00:11:25;;;;;;;7.50;1.77;;;16.50;99.90;;;;;;5131670;27;20070;-77
2023/09/24 00:13:51;;;;;;;5.78;1.48;;;16.60;99.90;;;;;;5113012;28;20110;-77
2023/09/24 00:16:17;;;;;;;6.47;1.40;;;16.50;99.90;;;;;;5130909;28;20058;-77
2023/09/24 00:18:42;;;;;;;6.88;1.63;;;16.50;99.90;;;;;;5131449;28;20031;-77
2023/09/24 00:21:09;;;;;;;6.00;1.63;;;16.40;99.90;;;;;;5130904;28;20416;-77
2023/09/24 00:23:36;;;;;;;7.15;1.50;;;16.50;99.90;;;;;;5112456;28;20428;-77
2023/09/24 00:26:02;;;;;;;3.13;1.38;;;16.50;99.90;;;;;;5130557;28;20071;-76
2023/09/24 00:28:28;;;;;;;3.58;1.58;;;16.40;99.90;;;;;;5131032;28;20039;-76
2023/09/24 00:31:00;;;;;;;8.60;1.90;;;16.50;99.90;;;;;;5130826;28;20160;-78
2023/09/24 00:33:26;;;;;;;7.63;2.13;;;16.50;99.90;;;;;;5131484;28;20034;-77
2023/09/24 00:35:53;;;;;;;7.10;1.48;;;16.40;99.90;;;;;;5131186;28;20027;-76
2023/09/24 00:38:19;;;;;;;8.55;1.70;;;16.40;99.90;;;;;;5130568;28;20027;-76
2023/09/24 00:40:45;;;;;;;8.00;1.92;;;16.40;99.90;;;;;;5130722;28;20031;-76
2023/09/24 00:43:31;;;;;;;6.22;1.63;;;16.40;99.90;;;;;;5130277;28;20088;-76
2023/09/24 00:45:58;;;;;;;6.60;1.80;;;16.40;99.90;;;;;;5130245;28;20030;-77
2023/09/24 00:48:28;;;;;;;4.53;1.40;;;16.30;99.90;;;;;;5131068;28;20070;-77
2023/09/24 00:50:57;;;;;;;3.65;1.70;;;16.40;99.90;;;;;;5130847;28;20046;-76
2023/09/24 00:53:25;;;;;;;7.07;1.83;;;16.40;99.90;;;;;;5130795;28;20027;-77
2023/09/24 00:55:51;;;;;;;3.03;1.67;;;16.50;99.90;;;;;;5130665;28;20355;-77
2023/09/24 00:58:17;;;;;;;9.15;2.10;;;16.40;99.90;;;;;;5130281;28;20237;-77
2023/09/24 01:00:45;;;;;;;5.80;1.70;;;16.50;99.90;;;;;;5130644;28;20456;-77
2023/09/24 01:03:12;;;;;;;6.00;1.65;;;16.50;99.90;;;;;;5130527;28;20058;-76
2023/09/24 01:05:38;;;;;;;5.65;1.70;;;16.50;99.90;;;;;;5130538;28;20015;-76
2023/09/24 01:08:04;;;;;;;7.65;1.75;;;16.40;99.90;;;;;;5130125;28;20469;-77
2023/09/24 01:10:30;;;;;;;4.47;2.05;;;16.40;99.90;;;;;;5130592;28;20110;-75
2023/09/24 01:13:00;;;;;;;7.38;1.83;;;16.30;99.90;;;;;;5112303;28;20065;-76
2023/09/24 01:15:27;;;;;;;5.97;1.90;;;16.30;99.90;;;;;;5130316;28;20038;-76
2023/09/24 01:17:53;;;;;;;3.42;1.70;;;16.30;99.90;;;;;;5130840;28;20031;-76
2023/09/24 01:20:24;;;;;;;7.25;1.67;;;16.30;99.90;;;;;;5133886;27;20138;-77
2023/09/24 01:22:50;;;;;;;6.50;2.08;;;16.30;99.90;;;;;;5134697;27;20051;-77
2023/09/24 01:25:18;;;;;;;7.13;1.90;;;16.30;99.90;;;;;;5133913;27;20031;-77
2023/09/24 01:27:46;;;;;;;4.32;1.75;;;16.40;99.90;;;;;;5115998;27;20027;-77
2023/09/24 01:30:13;;;;;;;6.60;1.77;;;16.40;99.90;;;;;;5133746;27;20031;-77
2023/09/24 01:32:40;;;;;;;7.00;1.98;;;16.30;99.90;;;;;;5134693;27;20035;-77
2023/09/24 01:35:07;;;;;;;5.40;1.85;;;16.30;99.90;;;;;;5133556;27;20337;-77
2023/09/24 01:37:33;;;;;;;5.25;1.90;;;16.30;99.90;;;;;;5134162;27;20031;-76
2023/09/24 01:40:10;;;;;;;6.32;2.05;;;16.30;99.90;;;;;;5133788;27;20400;-77
2023/09/24 01:42:36;;;;;;;6.40;1.80;;;16.20;99.90;;;;;;5134631;27;20023;-77
2023/09/24 01:45:02;;;;;;;6.38;1.70;;;16.20;99.90;;;;;;5133429;27;20030;-78
2023/09/24 01:47:28;;;;;;;7.55;2.28;;;16.20;99.90;;;;;;5134238;27;20039;-77
2023/09/24 01:49:56;;;;;;;8.30;2.00;;;16.20;99.90;;;;;;5133744;27;20031;-77
2023/09/24 01:52:22;;;;;;;10.30;2.00;;;16.20;99.90;;;;;;5133823;27;20061;-77
2023/09/24 01:54:48;;;;;;;8.13;2.40;;;16.20;99.90;;;;;;5115387;27;20023;-77
2023/09/24 01:57:14;;;;;;;5.35;2.08;;;16.10;99.90;;;;;;5133274;27;20026;-77
2023/09/24 01:59:39;;;;;;;4.60;2.10;;;16.10;99.90;;;;;;5133808;27;20063;-76
2023/09/24 02:02:06;;;;;;;6.30;2.15;;;16.10;99.90;;;;;;5115127;27;20034;-77
2023/09/24 02:04:32;;;;;;;9.32;2.30;;;16.00;99.90;;;;;;5115571;27;20483;-76
2023/09/24 02:07:00;;;;;;;9.63;2.50;;;16.10;99.90;;;;;;5134115;27;20027;-77
2023/09/24 02:09:26;;;;;;;8.23;2.40;;;16.10;99.90;;;;;;5133400;27;20114;-77
2023/09/24 02:11:54;;;;;;;10.25;2.75;;;16.00;99.90;;;;;;5115494;27;20114;-77
2023/09/24 02:14:19;;;;;;;9.27;2.53;;;16.00;99.90;;;;;;5133792;27;20058;-77
2023/09/24 02:16:45;;;;;;;9.27;2.40;;;15.90;99.90;;;;;;5134297;27;20379;-77
2023/09/24 02:19:11;;;;;;;9.88;2.50;;;15.90;99.90;;;;;;5134256;27;20133;-77
2023/09/24 02:21:40;;;;;;;9.48;2.85;;;15.90;99.90;;;;;;5115966;27;20456;-77
2023/09/24 02:24:07;;;;;;;11.02;3.13;;;16.00;99.90;;;;;;5134009;27;20375;-77
2023/09/24 02:26:33;;;;;;;16.33;3.65;;;16.00;99.90;;;;;;5134202;27;20023;-77
2023/09/24 02:28:59;;;;;;;13.57;3.15;;;16.00;99.90;;;;;;5133477;27;20444;-77
2023/09/24 02:31:26;;;;;;;10.68;2.97;;;15.90;99.90;;;;;;5132496;27;20031;-77
2023/09/24 02:33:52;;;;;;;18.23;4.10;;;15.90;99.90;;;;;;5114959;27;20352;-77
2023/09/24 02:36:17;;;;;;;13.07;3.35;;;15.80;99.90;;;;;;5132275;27;20072;-77
2023/09/24 02:38:43;;;;;;;14.88;3.45;;;15.80;99.90;;;;;;5133133;27;20031;-77
2023/09/24 02:41:11;;;;;;;15.27;3.78;;;15.80;99.90;;;;;;5132483;27;20464;-78
2023/09/24 02:43:37;;;;;;;17.33;3.70;;;15.80;99.90;;;;;;5133009;27;20027;-77
2023/09/24 02:46:05;;;;;;;17.20;3.97;;;15.80;99.90;;;;;;5132572;27;20031;-78
2023/09/24 02:48:33;;;;;;;18.15;4.05;;;15.80;99.90;;;;;;5132498;27;20080;-76
2023/09/24 02:51:08;;;;;;;17.80;3.75;;;15.80;99.90;;;;;;5132966;27;20168;-77
2023/09/24 02:53:35;;;;;;;18.38;4.22;;;15.70;99.90;;;;;;5132931;27;20027;-77
2023/09/24 02:56:01;;;;;;;14.82;3.63;;;15.70;99.90;;;;;;5132830;27;20460;-77
2023/09/24 02:58:26;;;;;;;20.33;4.22;;;15.70;99.90;;;;;;5113637;27;20027;-76
2023/09/24 03:00:52;;;;;;;21.05;4.03;;;15.60;99.90;;;;;;5133118;27;20031;-76
2023/09/24 03:03:18;;;;;;;15.68;4.22;;;15.60;99.90;;;;;;5079824;27;20043;-76
2023/09/24 03:05:44;;;;;;;18.83;4.70;;;15.60;99.90;;;;;;5132517;27;20027;-76
2023/09/24 03:08:09;;;;;;;16.13;4.00;;;15.60;99.90;;;;;;5131925;27;20036;-77
2023/09/24 03:10:36;;;;;;;14.30;4.22;;;15.50;99.90;;;;;;5113895;27;20039;-76
2023/09/24 03:13:06;;;;;;;16.70;4.15;;;15.50;99.90;;;;;;5132466;27;20061;-76
2023/09/24 03:15:32;;;;;;;23.95;4.57;;;15.50;99.90;;;;;;5132323;27;20041;-76
2023/09/24 03:17:59;;;;;;;21.95;4.38;;;15.50;99.90;;;;;;5132493;27;20348;-76
2023/09/24 03:20:26;;;;;;;12.40;3.75;;;15.50;99.90;;;;;;5131793;27;20027;-76
2023/09/24 03:22:54;;;;;;;17.30;4.80;;;15.50;99.90;;;;;;5132411;27;20326;-76
2023/09/24 03:25:20;;;;;;;18.83;4.18;;;15.50;99.90;;;;;;5131994;27;20046;-76
2023/09/24 03:27:48;;;;;;;22.13;4.45;;;15.50;99.90;;;;;;5113928;27;20039;-76
2023/09/24 03:30:17;;;;;;;17.35;5.00;;;15.60;99.90;;;;;;5132255;27;20048;-78
2023/09/24 03:32:44;;;;;;;19.05;4.47;;;15.60;99.90;;;;;;5132917;27;20055;-78
2023/09/24 03:35:10;;;;;;;21.23;4.60;;;15.60;99.90;;;;;;5131725;27;20019;-78
2023/09/24 03:37:43;;;;;;;16.65;4.72;;;15.60;99.90;;;;;;5132397;27;20027;-77
2023/09/24 03:40:13;;;;;;;19.17;4.88;;;15.70;99.90;;;;;;5131286;27;20031;-78
2023/09/24 03:42:39;;;;;;;22.20;4.57;;;15.60;99.90;;;;;;5130852;27;20452;-77
2023/09/24 03:45:09;;;;;;;22.67;4.97;;;15.70;99.90;;;;;;5113639;27;20031;-77
2023/09/24 03:47:38;;;;;;;23.98;4.93;;;15.60;99.90;;;;;;5131648;27;20449;-77
2023/09/24 03:50:13;;;;;;;16.27;4.22;;;15.60;99.90;;;;;;5131722;27;20035;-77
2023/09/24 03:52:43;;;;;;;25.33;5.40;;;15.60;99.90;;;;;;5132094;27;20118;-77
2023/09/24 03:55:09;;;;;;;21.13;5.40;;;15.60;99.90;;;;;;5131262;27;20112;-79
2023/09/24 03:57:35;;;;;;;27.10;5.75;;;15.60;99.90;;;;;;5131684;27;20026;-77
2023/09/24 04:00:03;;;;;;;22.70;4.88;;;15.60;99.90;;;;;;5113274;27;20558;-77
2023/09/24 04:02:28;;;;;;;30.20;5.65;;;15.60;99.90;;;;;;5131573;27;20466;-77
2023/09/24 04:04:54;;;;;;;28.95;5.55;;;15.60;99.90;;;;;;5131519;27;20138;-77
2023/09/24 04:07:20;;;;;;;27.17;5.50;;;15.60;99.90;;;;;;5112552;27;20030;-77
2023/09/24 04:09:47;;;;;;;29.98;5.43;;;15.60;99.90;;;;;;5131404;27;20027;-77
2023/09/24 04:12:13;;;;;;;22.08;5.57;;;15.60;99.90;;;;;;5130633;27;20456;-78
2023/09/24 04:14:40;;;;;;;23.10;5.82;;;15.60;99.90;;;;;;5131510;27;20037;-77
2023/09/24 04:17:06;;;;;;;20.08;4.90;;;15.60;99.90;;;;;;5113279;27;20082;-78
2023/09/24 04:19:32;;;;;;;24.80;4.80;;;15.70;99.90;;;;;;5130836;27;20023;-78
2023/09/24 04:21:58;;;;;;;28.65;4.93;;;15.70;99.90;;;;;;5131712;28;20110;-78
2023/09/24 04:24:24;;;;;;;19.75;5.05;;;15.70;99.90;;;;;;5130874;28;20077;-77
2023/09/24 04:26:54;;;;;;;24.02;5.43;;;15.70;99.90;;;;;;5131277;28;20027;-77
2023/09/24 04:29:20;;;;;;;24.27;5.18;;;15.70;99.90;;;;;;5130525;28;20503;-77
2023/09/24 04:31:46;;;;;;;23.50;5.57;;;15.70;99.90;;;;;;5112864;28;20227;-77
2023/09/24 04:34:12;;;;;;;21.98;5.32;;;15.70;99.90;;;;;;5130670;28;20415;-78
2023/09/24 04:36:42;;;;;;;20.00;5.15;;;15.60;99.90;;;;;;5131232;28;20047;-76
2023/09/24 04:39:11;;;;;;;22.83;5.50;;;15.70;99.90;;;;;;5131281;28;20106;-76
2023/09/24 04:41:43;;;;;;;14.60;4.45;;;15.60;99.90;;;;;;5130844;28;20027;-76
2023/09/24 04:44:08;;;;;;;22.75;4.80;;;15.60;99.90;;;;;;5131291;28;20073;-76
2023/09/24 04:46:35;;;;;;;20.20;4.97;;;15.60;99.90;;;;;;5131056;28;20124;-76
2023/09/24 04:49:08;;;;;;;22.20;5.65;;;15.60;99.90;;;;;;5130684;28;20059;-76
2023/09/24 04:51:34;;;;;;;;;;;15.60;99.90;;;;;;5131192;28;20023;-76
2023/09/24 04:54:00;;;;;;;17.38;4.07;;;15.60;99.90;;;;;;5132527;27;19903;-76
2023/09/24 04:56:27;;;;;;;21.20;4.85;;;15.60;99.90;;;;;;5134722;27;20034;-76
2023/09/24 04:58:53;;;;;;;20.63;4.20;;;15.60;99.90;;;;;;5135373;27;20073;-76
2023/09/24 05:01:19;;;;;;;19.73;5.10;;;15.60;99.90;;;;;;5134741;27;20019;-76
2023/09/24 05:03:47;;;;;;;28.60;5.35;;;15.60;99.90;;;;;;5134958;27;20027;-76
2023/09/24 05:06:13;;;;;;;18.52;5.57;;;15.60;99.90;;;;;;5134390;27;20105;-78
2023/09/24 05:08:39;;;;;;;23.58;4.82;;;15.60;99.90;;;;;;5134996;27;20118;-76
2023/09/24 05:11:05;;;;;;;22.23;5.10;;;15.60;99.90;;;;;;5116122;27;20352;-76
2023/09/24 05:13:30;;;;;;;18.95;4.68;;;15.60;99.90;;;;;;5134151;27;20263;-76
2023/09/24 05:16:00;;;;;;;16.17;4.30;;;15.60;99.90;;;;;;5134880;27;20023;-76
2023/09/24 05:18:27;;;;;;;23.35;4.72;;;15.60;99.90;;;;;;5133985;27;20030;-76
2023/09/24 05:20:54;;;;;;;18.33;4.75;;;15.60;99.90;;;;;;5134483;27;20023;-76
2023/09/24 05:23:20;;;;;;;22.23;4.95;;;15.60;99.90;;;;;;5115609;27;20027;-76
2023/09/24 05:25:46;;;;;;;21.77;4.68;;;15.60;99.90;;;;;;5134163;27;20023;-76
2023/09/24 05:28:12;;;;;;;24.30;4.65;;;15.60;99.90;;;;;;5134442;27;20119;-77
2023/09/24 05:30:38;;;;;;;22.17;5.28;;;15.60;99.90;;;;;;5115368;27;20071;-77
2023/09/24 05:33:04;;;;;;;19.42;4.43;;;15.60;99.90;;;;;;5133984;27;20491;-77
2023/09/24 05:35:31;;;;;;;21.15;4.18;;;15.60;99.90;;;;;;5133470;27;20102;-76
2023/09/24 05:37:57;;;;;;;20.52;4.60;;;15.50;99.90;;;;;;5134563;27;20027;-76
2023/09/24 05:40:23;;;;;;;17.10;4.18;;;15.50;99.90;;;;;;5114886;27;20041;-76
2023/09/24 05:42:48;;;;;;;16.35;4.30;;;15.60;99.90;;;;;;5134420;27;20456;-77
2023/09/24 05:45:14;;;;;;;16.60;4.05;;;15.70;99.90;;;;;;5133929;27;20045;-78
2023/09/24 05:47:41;;;;;;;18.77;5.00;;;15.70;99.90;;;;;;5133923;27;20043;-76
2023/09/24 05:50:07;;;;;;;20.13;4.57;;;15.90;99.90;;;;;;5133785;27;20041;-76
2023/09/24 05:52:33;;;;;;;14.00;4.35;;;15.90;99.90;;;;;;5133445;27;20031;-76
2023/09/24 05:54:59;;;;;;;15.20;4.32;;;15.90;99.90;;;;;;5133781;27;20024;-77
2023/09/24 05:57:28;;;;;;;13.82;3.53;;;15.80;99.90;;;;;;5133374;27;20023;-78
2023/09/24 05:59:55;;;;;;;19.90;4.65;;;15.70;99.90;;;;;;5133856;27;20058;-77
2023/09/24 06:02:24;;;;;;;15.00;4.63;;;15.70;99.90;;;;;;5115083;27;20023;-78
2023/09/24 06:04:50;;;;;;;14.52;4.28;;;15.60;99.90;;;;;;5132937;27;20030;-78
2023/09/24 06:07:16;;;;;;;19.38;5.13;;;15.60;99.90;;;;;;5132834;27;20027;-79
2023/09/24 06:09:42;;;;;;;16.98;4.47;;;15.50;99.90;;;;;;5133174;27;20035;-77
2023/09/24 06:12:07;;;;;;;17.10;4.43;;;15.50;99.90;;;;;;5114871;27;20050;-78
2023/09/24 06:14:33;;;;;;;17.33;4.85;;;15.50;99.90;;;;;;5132973;27;20351;-77
2023/09/24 06:16:59;;;;;;;21.70;5.38;;;15.40;99.90;;;;;;5133582;27;20032;-77
2023/09/24 06:19:25;;;;;;;18.40;4.63;;;15.30;99.90;;;;;;5132424;27;20448;-79
2023/09/24 06:21:51;;;;;;;19.75;4.78;;;15.20;99.90;;;;;;5133649;27;20051;-77
2023/09/24 06:24:17;;;;;;;17.45;4.75;;;15.20;99.90;;;;;;5133165;27;20110;-80
2023/09/24 06:26:43;;;;;;;13.95;3.67;;;15.10;99.90;;;;;;5133314;27;20049;-77
2023/09/24 06:29:08;;;;;;;14.95;4.32;;;15.10;99.90;;;;;;5133238;27;20031;-77
2023/09/24 06:31:34;;;;;;;17.73;4.82;;;15.30;99.90;;;;;;5132521;27;20023;-76
2023/09/24 06:34:00;;;;;;;14.43;4.82;;;15.30;99.90;;;;;;5132936;27;20019;-77
2023/09/24 06:36:26;;;;;;;15.70;4.60;;;15.40;99.90;;;;;;5132459;27;20383;-77
2023/09/24 06:38:52;;;;;;;16.25;4.60;;;15.50;99.90;;;;;;5133144;27;20429;-77
2023/09/24 06:41:17;;;;;;;15.98;4.65;;;15.50;99.90;;;;;;5131871;27;20027;-78
2023/09/24 06:43:43;;;;;;;11.10;4.28;;;15.50;99.90;;;;;;5132575;27;20062;-77
2023/09/24 06:46:09;;;;;;;18.13;4.43;;;15.50;99.90;;;;;;5132192;27;20400;-77
2023/09/24 06:48:35;;;;;;;18.52;4.47;;;15.50;99.90;;;;;;5132032;27;20046;-78
2023/09/24 06:51:08;;;;;;;16.40;5.10;;;15.40;99.90;;;;;;5132168;27;20131;-77
2023/09/24 06:53:34;;;;;;;17.88;5.15;;;15.40;99.90;;;;;;5132115;27;20027;-77
2023/09/24 06:56:03;;;;;;;17.95;4.85;;;15.50;99.90;;;;;;5132733;27;20046;-77
2023/09/24 06:58:28;;;;;;;14.93;5.00;;;15.50;99.90;;;;;;5131985;27;20024;-76
2023/09/24 07:00:58;;;;;;;20.98;5.55;;;15.60;99.90;;;;;;5132433;27;20353;-76
2023/09/24 07:03:23;;;;;;;20.40;5.75;;;15.60;99.90;;;;;;5114473;27;20115;-77
2023/09/24 07:05:51;;;;;;;16.05;4.97;;;15.60;99.90;;;;;;5132399;27;20094;-77
2023/09/24 07:08:16;;;;;;;12.55;4.45;;;15.70;99.90;;;;;;5113903;27;20023;-77
2023/09/24 07:10:42;;;;;;;14.52;4.72;;;15.80;99.90;;;;;;5131536;27;20031;-78
2023/09/24 07:13:08;;;;;;;15.52;4.88;;;15.90;99.90;;;;;;5113461;27;20472;-77
2023/09/24 07:15:34;;;;;;;20.27;5.20;;;16.00;99.90;;;;;;5131597;27;20034;-77
2023/09/24 07:17:59;;;;;;;18.35;5.10;;;16.10;99.90;;;;;;5132026;27;20092;-77
2023/09/24 07:20:25;;;;;;;13.10;4.22;;;16.40;99.90;;;;;;5112863;27;20074;-77
2023/09/24 07:22:51;;;;;;;11.48;4.15;;;16.50;99.90;;;;;;5132519;27;20116;-78
2023/09/24 07:25:17;;;;;;;10.55;4.25;;;16.70;99.90;;;;;;5132276;27;20461;-77
2023/09/24 07:27:42;;;;;;;12.07;3.60;;;16.80;99.90;;;;;;5131899;27;20065;-77
2023/09/24 07:30:09;;;;;;;11.93;4.07;;;16.90;99.90;;;;;;5132267;27;20091;-78
2023/09/24 07:32:34;;;;;;;13.93;4.20;;;16.80;99.90;;;;;;5131566;27;20495;-78
2023/09/24 07:35:00;;;;;;;14.23;3.47;;;16.80;99.90;;;;;;5132165;27;20035;-77
2023/09/24 07:37:26;;;;;;;11.63;3.80;;;16.80;99.90;;;;;;5131410;27;20150;-79
2023/09/24 07:39:52;;;;;;;9.57;2.70;;;16.80;99.90;;;;;;5113344;27;20384;-77
2023/09/24 07:42:17;;;;;;;11.07;2.90;;;16.70;99.90;;;;;;5131892;27;20019;-77
2023/09/24 07:44:43;;;;;;;10.02;3.53;;;16.70;99.90;;;;;;5130638;27;20062;-77
2023/09/24 07:47:09;;;;;;;11.55;3.25;;;16.70;99.90;;;;;;5131013;27;20468;-77
2023/09/24 07:49:35;;;;;;;10.00;3.17;;;16.70;99.90;;;;;;5130877;27;20127;-76
2023/09/24 07:52:00;;;;;;;12.75;2.85;;;16.60;99.90;;;;;;5131356;27;20031;-76
2023/09/24 07:54:27;;;;;;;5.25;1.92;;;16.60;99.90;;;;;;5130897;27;20352;-77
2023/09/24 07:56:53;;;;;;;5.18;1.60;;;16.60;99.90;;;;;;5131445;27;20023;-77
2023/09/24 07:59:19;;;;;;;4.13;1.52;;;16.70;99.90;;;;;;5131087;27;20027;-74
2023/09/24 08:01:45;;;;;;;3.65;1.40;;;16.70;99.90;;;;;;5131291;27;20050;-77
2023/09/24 08:04:11;;;;;;;4.43;1.27;;;16.70;99.90;;;;;;5131443;27;20038;-77
2023/09/24 08:06:37;;;;;;;3.50;1.60;;;16.70;99.90;;;;;;5130553;27;20150;-77
2023/09/24 08:09:05;;;;;;;6.30;1.40;;;16.70;99.90;;;;;;5112855;28;20517;-76
2023/09/24 08:11:32;;;;;;;4.18;1.13;;;16.70;99.90;;;;;;5130576;27;20038;-76
2023/09/24 08:13:58;;;;;;;3.28;1.30;;;16.70;99.90;;;;;;5131321;27;20076;-76
2023/09/24 08:16:24;;;;;;;3.05;1.27;;;16.70;99.90;;;;;;5130403;27;20027;-78
2023/09/24 08:18:49;;;;;;;3.92;1.50;;;16.80;99.90;;;;;;5130863;27;20027;-76
2023/09/24 08:21:16;;;;;;;4.25;1.25;;;16.80;99.90;;;;;;5131241;27;20019;-76
2023/09/24 08:23:42;;;;;;;2.90;1.02;;;16.80;99.90;;;;;;5130443;28;20023;-75
2023/09/24 08:26:08;;;;;;;1.15;0.50;;;16.80;99.90;;;;;;5131223;28;20420;-76
2023/09/24 08:28:34;;;;;;;1.67;0.70;;;16.80;99.90;;;;;;5131515;27;20050;-77
2023/09/24 08:30:59;;;;;;;1.50;0.50;;;16.80;99.90;;;;;;5135200;27;20039;-77
2023/09/24 08:33:25;;;;;;;31.50;9.55;;;16.80;99.90;;;;;;5135064;27;20027;-77
2023/09/24 08:35:51;;;;;;;75.03;21.08;;;16.90;99.90;;;;;;5134809;27;20026;-76
2023/09/24 08:38:16;;;;;;;85.97;22.10;;;16.90;99.90;;;;;;5135435;27;20374;-76
2023/09/24 08:40:42;;;;;;;28.17;9.70;;;16.90;99.90;;;;;;5134710;27;20039;-77
2023/09/24 08:43:18;;;;;;;11.68;4.22;;;16.90;99.90;;;;;;5116728;27;20023;-76
2023/09/24 08:45:44;;;;;;;3.35;1.15;;;16.80;99.90;;;;;;5116465;27;20023;-76
2023/09/24 08:48:11;;;;;;;1.52;0.85;;;16.80;99.90;;;;;;5134638;27;20039;-76
2023/09/24 08:50:38;;;;;;;0.70;0.70;;;16.80;99.90;;;;;;5134429;27;20027;-77
2023/09/24 08:53:11;;;;;;;0.32;0.32;;;16.90;99.90;;;;;;5134976;27;20023;-76
2023/09/24 08:55:39;;;;;;;0.35;0.30;;;16.90;99.90;;;;;;5134410;27;20035;-76
2023/09/24 08:58:05;;;;;;;0.30;0.28;;;16.90;99.90;;;;;;5134892;27;20059;-77
2023/09/24 09:00:30;;;;;;;9.52;3.28;;;17.00;99.90;;;;;;5133889;27;20020;-79
2023/09/24 09:03:03;;;;;;;14.77;5.22;;;17.00;99.90;;;;;;5135008;27;20096;-77
2023/09/24 09:05:29;;;;;;;4.43;2.35;;;17.10;99.90;;;;;;5134476;27;20027;-77
2023/09/24 09:07:58;;;;;;;2.63;0.88;;;17.10;99.90;;;;;;5134335;27;20126;-76
2023/09/24 09:10:42;;;;;;;1.23;0.43;;;17.20;99.90;;;;;;5135045;27;20031;-76
2023/09/24 09:13:11;;;;;;;2.65;0.60;;;17.20;99.90;;;;;;5135125;27;20053;-77
2023/09/24 09:15:39;;;;;;;0.73;0.60;;;17.20;99.90;;;;;;5133826;27;20042;-76
2023/09/24 09:18:05;;;;;;;3.83;1.40;;;17.20;99.90;;;;;;5134465;27;20502;-77
2023/09/24 09:20:42;;;;;;;1.10;0.50;;;17.20;99.90;;;;;;5133887;27;20031;-78
2023/09/24 09:23:12;;;;;;;0.73;0.60;;;17.30;99.90;;;;;;5115844;27;20019;-77
2023/09/24 09:25:52;;;;;;;0.85;0.50;;;17.40;99.90;;;;;;5133984;27;20076;-77
2023/09/24 09:28:37;;;;;;;1.63;0.70;;;17.60;99.90;;;;;;5134303;27;20034;-77
2023/09/24 09:31:06;;;;;;;0.98;0.70;;;17.70;99.90;;;;;;5134628;27;20081;-76
2023/09/24 09:33:38;;;;;;;2.10;0.60;;;17.70;99.90;;;;;;5133674;27;20020;-77
2023/09/24 09:36:04;;;;;;;;;;;17.80;99.90;;;;;;5116725;27;20038;-77
2023/09/24 09:38:30;;;;;;;1.85;0.70;;;17.90;99.90;;;;;;5133801;27;19903;-79
2023/09/24 09:40:58;;;;;;;1.40;0.68;;;18.00;99.90;;;;;;5134002;27;20031;-78
2023/09/24 09:43:33;;;;;;;2.20;0.70;;;18.00;99.90;;;;;;5134894;27;20500;-77
2023/09/24 09:46:03;;;;;;;2.50;0.80;;;18.10;99.90;;;;;;5134291;27;20019;-77
2023/09/24 09:48:32;;;;;;;0.70;0.70;;;18.20;99.90;;;;;;5133538;27;20437;-78
2023/09/24 09:51:03;;;;;;;0.88;0.50;;;18.20;99.90;;;;;;5114891;27;20494;-78
2023/09/24 09:53:34;;;;;;;1.30;0.90;;;18.30;99.90;;;;;;5114733;27;20034;-77
2023/09/24 09:56:02;;;;;;;0.95;0.60;;;18.30;99.90;;;;;;5132825;27;20136;-77
2023/09/24 09:58:30;;;;;;;1.27;0.68;;;18.30;99.90;;;;;;5114101;27;20034;-76
2023/09/24 10:00:59;;;;;;;1.30;0.65;;;18.30;99.90;;;;;;5133117;27;20030;-76
2023/09/24 10:03:26;;;;;;;1.25;0.68;;;18.30;99.90;;;;;;5133214;27;20028;-77
2023/09/24 10:05:53;;;;;;;0.70;0.30;;;18.30;99.90;;;;;;5132488;27;20034;-78
2023/09/24 10:08:47;;;;;;;0.50;0.50;;;18.40;99.90;;;;;;5114521;27;20084;-78
2023/09/24 10:11:32;;;;;;;2.08;0.50;;;18.40;99.90;;;;;;5133004;27;20082;-77
2023/09/24 10:14:04;;;;;;;0.95;0.65;;;18.40;99.90;;;;;;5132789;27;20020;-76
2023/09/24 10:16:41;;;;;;;0.98;0.60;;;18.30;99.90;;;;;;5133121;27;20031;-78
2023/09/24 10:19:11;;;;;;;0.60;0.55;;;18.30;99.90;;;;;;5132679;27;20064;-77
2023/09/24 10:21:44;;;;;;;1.35;0.30;;;18.30;99.90;;;;;;5113671;27;20020;-76
2023/09/24 10:24:10;;;;;;;0.52;0.50;;;18.20;99.90;;;;;;5132609;27;20023;-78
2023/09/24 10:26:49;;;;;;;0.88;0.35;;;18.20;99.90;;;;;;5131903;27;20420;-76
2023/09/24 10:29:19;;;;;;;0.70;0.70;;;18.10;99.90;;;;;;5132707;27;20081;-76
2023/09/24 10:32:10;;;;;;;0.40;0.38;;;18.10;99.90;;;;;;5132495;27;20038;-77
2023/09/24 10:34:57;;;;;;;0.20;0.20;;;18.20;99.90;;;;;;5131953;27;20460;-76
2023/09/24 10:37:33;;;;;;;0.30;0.30;;;18.10;99.90;;;;;;5118709;27;20480;-77
2023/09/24 10:40:05;;;;;;;0.70;0.70;;;18.20;99.90;;;;;;5114003;27;20423;-77
2023/09/24 10:42:31;;;;;;;0.40;0.40;;;18.20;99.90;;;;;;5131811;27;20031;-77
2023/09/24 10:45:09;;;;;;;0.30;0.30;;;18.20;99.90;;;;;;5131485;27;20420;-77
2023/09/24 10:47:38;;;;;;;1.30;1.20;;;18.10;99.90;;;;;;5109295;28;20047;-76
2023/09/24 10:50:06;;;;;;;0.90;0.90;;;18.10;99.90;;;;;;5111560;28;20020;-76
2023/09/24 10:53:01;;;;;;;0.40;0.40;;;18.10;99.90;;;;;;5110693;28;20091;-78
2023/09/24 10:55:28;;;;;;;0.60;0.40;;;18.00;99.90;;;;;;5112152;28;20155;-76
2023/09/24 10:57:54;;;;;;;0.50;0.38;;;18.00;99.90;;;;;;5111346;28;20624;-76
2023/09/24 11:00:21;;;;;;;0.73;0.40;;;17.90;99.90;;;;;;5111085;28;20111;-77
2023/09/24 11:03:06;;;;;;;0.50;0.50;;;17.80;99.90;;;;;;5110189;28;20354;-78
2023/09/24 11:05:41;;;;;;;0.60;0.40;;;17.80;99.90;;;;;;5111861;28;20024;-78
2023/09/24 11:08:07;;;;;;;0.32;0.32;;;17.70;99.90;;;;;;5111455;28;20027;-76
2023/09/24 11:10:33;;;;;;;0.63;0.32;;;17.70;99.90;;;;;;5112066;28;20055;-77
2023/09/24 11:13:04;;;;;;;1.05;0.65;;;17.70;99.90;;;;;;5111491;28;20063;-76
2023/09/24 11:15:31;;;;;;;1.27;0.60;;;17.70;99.90;;;;;;5111906;28;20362;-76
2023/09/24 11:17:58;;;;;;;1.73;0.50;;;17.70;99.90;;;;;;5110498;28;20028;-77
2023/09/24 11:20:25;;;;;;;1.25;0.50;;;17.70;99.90;;;;;;5109572;28;20031;-77
2023/09/24 11:23:08;;;;;;;0.70;0.50;;;17.70;99.90;;;;;;5110906;28;20064;-76
2023/09/24 11:25:35;;;;;;;1.08;0.40;;;17.60;99.90;;;;;;5110954;28;20062;-78
2023/09/24 11:28:02;;;;;;;1.77;0.50;;;17.60;99.90;;;;;;5110531;28;20432;-77
2023/09/24 11:30:49;;;;;;;0.50;0.50;;;17.60;99.90;;;;;;5111093;28;20065;-77
2023/09/24 11:33:22;;;;;;;1.92;0.47;;;17.60;99.90;;;;;;5111005;28;20039;-77
2023/09/24 11:35:50;;;;;;;0.40;0.40;;;17.70;99.90;;;;;;5110657;28;20110;-78
2023/09/24 11:38:33;;;;;;;2.33;0.50;;;17.70;99.90;;;;;;5110408;28;20461;-78
2023/09/24 11:41:11;;;;;;;;;;;17.80;99.90;;;;;;5110806;28;20055;-77
2023/09/24 11:43:37;;;;;;;0.63;0.30;;;17.90;99.90;;;;;;5110368;28;20356;-78
2023/09/24 11:46:14;;;;;;;0.75;0.22;;;18.00;99.90;;;;;;5110567;28;20407;-77
2023/09/24 11:48:39;;;;;;;1.75;0.63;;;18.00;99.90;;;;;;5126040;27;20387;-77
2023/09/24 11:51:06;;;;;;;0.80;0.50;;;18.20;99.90;;;;;;5131098;27;20125;-78
2023/09/24 11:53:31;;;;;;;0.52;0.47;;;18.20;99.90;;;;;;5130958;27;20098;-77
2023/09/24 11:55:59;;;;;;;0.77;0.52;;;18.30;99.90;;;;;;5130384;27;20259;-77
2023/09/24 11:58:26;;;;;;;1.00;0.50;;;18.40;99.90;;;;;;5131267;27;20239;-77
2023/09/24 12:00:56;;;;;;;0.40;0.40;;;18.50;99.90;;;;;;5131270;27;20038;-77
2023/09/24 12:03:23;;;;;;;0.60;0.38;;;18.70;99.90;;;;;;5131094;27;20027;-77
2023/09/24 12:05:50;;;;;;;0.32;0.32;;;18.90;99.90;;;;;;5131301;27;20112;-76
2023/09/24 12:08:16;;;;;;;1.23;0.30;;;19.20;99.90;;;;;;5131897;27;20023;-76
2023/09/24 12:10:46;;;;;;;0.32;0.28;;;19.50;99.90;;;;;;5130973;27;20076;-77
2023/09/24 12:13:13;;;;;;;0.65;0.30;;;19.80;99.90;;;;;;5131825;27;20484;-77
2023/09/24 12:15:39;;;;;;;1.10;0.10;;;20.10;99.90;;;;;;5131292;27;20447;-78
2023/09/24 12:18:07;;;;;;;0.20;0.10;;;20.30;99.90;;;;;;5131998;27;20027;-76
2023/09/24 12:20:34;;;;;;;1.08;0.20;;;20.50;99.90;;;;;;5131669;27;20019;-77
2023/09/24 12:23:01;;;;;;;0.75;0.40;;;20.70;99.90;;;;;;5131023;27;20023;-76
2023/09/24 12:25:28;;;;;;;0.30;0.20;;;20.80;99.90;;;;;;5131618;28;20072;-77
2023/09/24 12:27:54;;;;;;;0.40;0.10;;;20.90;99.90;;;;;;5130983;28;20110;-76
2023/09/24 12:30:20;;;;;;;1.17;0.10;;;21.00;99.90;;;;;;5131221;28;20031;-76
2023/09/24 12:32:46;;;;;;;1.85;0.10;;;20.90;99.90;;;;;;5130005;28;20073;-76
2023/09/24 12:35:12;;;;;;;0.60;0.10;;;20.90;99.90;;;;;;5131559;28;20027;-77
2023/09/24 12:37:41;;;;;;;0.40;0.40;;;20.80;99.90;;;;;;5095811;28;20035;-78
2023/09/24 12:40:09;;;;;;;0.98;0.10;;;20.70;99.90;;;;;;5130599;28;20030;-77
2023/09/24 12:42:36;;;;;;;1.17;0.10;;;20.70;99.90;;;;;;5130897;28;20024;-76
2023/09/24 12:45:03;;;;;;;0.20;0.10;;;20.70;99.90;;;;;;5130972;28;20020;-78
2023/09/24 12:47:31;;;;;;;0.45;0.13;;;20.80;99.90;;;;;;5131392;28;20043;-77